sensor_id;sensor_type;location;lat;lon;timestamp;P1;durP1;ratioP1;P2;durP2;ratioP2
54191;SDS011;40101;53.002;6.488;2023-02-11T00:01:34;17.50;;;5.38;;
54191;SDS011;40101;53.002;6.488;2023-02-11T00:04:00;17.38;;;5.43;;
54191;SDS011;40101;53.002;6.488;2023-02-11T00:06:28;31.70;;;7.68;;
54191;SDS011;40101;53.002;6.488;2023-02-11T00:08:54;18.95;;;6.40;;
54191;SDS011;40101;53.002;6.488;2023-02-11T00:11:21;25.10;;;5.82;;
54191;SDS011;40101;53.002;6.488;2023-02-11T00:13:49;23.45;;;6.78;;
54191;SDS011;40101;53.002;6.488;2023-02-11T00:16:17;19.52;;;6.05;;
54191;SDS011;40101;53.002;6.488;2023-02-11T00:18:43;25.90;;;7.38;;
54191;SDS011;40101;53.002;6.488;2023-02-11T00:21:10;27.70;;;8.80;;
54191;SDS011;40101;53.002;6.488;2023-02-11T00:23:38;20.00;;;5.47;;
54191;SDS011;40101;53.002;6.488;2023-02-11T00:26:10;25.10;;;7.80;;
54191;SDS011;40101;53.002;6.488;2023-02-11T00:28:39;24.45;;;7.07;;
54191;SDS011;40101;53.002;6.488;2023-02-11T00:31:05;28.23;;;6.80;;
54191;SDS011;40101;53.002;6.488;2023-02-11T00:33:31;26.90;;;5.88;;
54191;SDS011;40101;53.002;6.488;2023-02-11T00:35:57;27.65;;;8.30;;
54191;SDS011;40101;53.002;6.488;2023-02-11T00:38:22;18.33;;;6.43;;
54191;SDS011;40101;53.002;6.488;2023-02-11T00:40:48;23.50;;;6.72;;
54191;SDS011;40101;53.002;6.488;2023-02-11T00:43:13;22.25;;;6.63;;
54191;SDS011;40101;53.002;6.488;2023-02-11T00:45:39;20.63;;;5.95;;
54191;SDS011;40101;53.002;6.488;2023-02-11T00:48:05;28.33;;;5.97;;
54191;SDS011;40101;53.002;6.488;2023-02-11T00:50:30;17.67;;;5.53;;
54191;SDS011;40101;53.002;6.488;2023-02-11T00:52:56;31.42;;;7.07;;
54191;SDS011;40101;53.002;6.488;2023-02-11T00:55:22;23.60;;;8.05;;
54191;SDS011;40101;53.002;6.488;2023-02-11T00:57:47;21.50;;;7.13;;
54191;SDS011;40101;53.002;6.488;2023-02-11T01:00:13;20.15;;;6.50;;
54191;SDS011;40101;53.002;6.488;2023-02-11T01:02:39;24.20;;;6.57;;
54191;SDS011;40101;53.002;6.488;2023-02-11T01:05:05;26.35;;;6.65;;
54191;SDS011;40101;53.002;6.488;2023-02-11T01:07:31;26.23;;;6.57;;
54191;SDS011;40101;53.002;6.488;2023-02-11T01:09:57;27.35;;;7.57;;
54191;SDS011;40101;53.002;6.488;2023-02-11T01:12:22;22.50;;;7.72;;
54191;SDS011;40101;53.002;6.488;2023-02-11T01:14:48;28.60;;;8.18;;
54191;SDS011;40101;53.002;6.488;2023-02-11T01:17:14;25.52;;;7.07;;
54191;SDS011;40101;53.002;6.488;2023-02-11T01:19:40;17.58;;;6.80;;
54191;SDS011;40101;53.002;6.488;2023-02-11T01:22:06;28.20;;;7.47;;
54191;SDS011;40101;53.002;6.488;2023-02-11T01:24:32;31.88;;;7.65;;
54191;SDS011;40101;53.002;6.488;2023-02-11T01:26:57;18.92;;;6.68;;
54191;SDS011;40101;53.002;6.488;2023-02-11T01:29:24;21.60;;;6.20;;
54191;SDS011;40101;53.002;6.488;2023-02-11T01:31:49;27.33;;;7.63;;
54191;SDS011;40101;53.002;6.488;2023-02-11T01:34:16;23.42;;;6.57;;
54191;SDS011;40101;53.002;6.488;2023-02-11T01:36:42;28.35;;;7.75;;
54191;SDS011;40101;53.002;6.488;2023-02-11T01:39:08;30.00;;;8.00;;
54191;SDS011;40101;53.002;6.488;2023-02-11T01:41:33;26.38;;;7.55;;
54191;SDS011;40101;53.002;6.488;2023-02-11T01:46:56;32.20;;;7.85;;
54191;SDS011;40101;53.002;6.488;2023-02-11T01:49:25;30.48;;;8.45;;
54191;SDS011;40101;53.002;6.488;2023-02-11T01:54:41;23.65;;;7.55;;
54191;SDS011;40101;53.002;6.488;2023-02-11T01:57:28;34.00;;;9.00;;
54191;SDS011;40101;53.002;6.488;2023-02-11T02:02:31;27.13;;;8.90;;
54191;SDS011;40101;53.002;6.488;2023-02-11T02:05:07;31.33;;;8.75;;
54191;SDS011;40101;53.002;6.488;2023-02-11T02:07:45;24.42;;;8.98;;
54191;SDS011;40101;53.002;6.488;2023-02-11T02:10:37;28.90;;;8.43;;
54191;SDS011;40101;53.002;6.488;2023-02-11T02:13:07;33.10;;;10.25;;
54191;SDS011;40101;53.002;6.488;2023-02-11T02:15:34;26.35;;;8.65;;
54191;SDS011;40101;53.002;6.488;2023-02-11T02:20:50;19.48;;;8.95;;
54191;SDS011;40101;53.002;6.488;2023-02-11T02:32:33;24.60;;;11.50;;
54191;SDS011;40101;53.002;6.488;2023-02-11T02:40:45;32.58;;;13.80;;
54191;SDS011;40101;53.002;6.488;2023-02-11T02:43:19;27.45;;;11.15;;
54191;SDS011;40101;53.002;6.488;2023-02-11T02:45:46;32.47;;;11.77;;
54191;SDS011;40101;53.002;6.488;2023-02-11T02:48:25;23.75;;;12.48;;
54191;SDS011;40101;53.002;6.488;2023-02-11T02:53:47;27.92;;;12.40;;
54191;SDS011;40101;53.002;6.488;2023-02-11T02:56:43;40.97;;;15.45;;
54191;SDS011;40101;53.002;6.488;2023-02-11T03:02:21;36.25;;;12.13;;
54191;SDS011;40101;53.002;6.488;2023-02-11T03:05:02;32.33;;;14.95;;
54191;SDS011;40101;53.002;6.488;2023-02-11T03:07:55;33.55;;;15.73;;
54191;SDS011;40101;53.002;6.488;2023-02-11T03:10:28;33.47;;;13.70;;
54191;SDS011;40101;53.002;6.488;2023-02-11T03:12:57;31.02;;;14.77;;
54191;SDS011;40101;53.002;6.488;2023-02-11T03:15:25;34.33;;;14.20;;
54191;SDS011;40101;53.002;6.488;2023-02-11T03:17:55;27.48;;;13.07;;
54191;SDS011;40101;53.002;6.488;2023-02-11T03:20:24;28.67;;;13.23;;
54191;SDS011;40101;53.002;6.488;2023-02-11T03:23:11;28.55;;;13.60;;
54191;SDS011;40101;53.002;6.488;2023-02-11T03:26:07;33.47;;;14.35;;
54191;SDS011;40101;53.002;6.488;2023-02-11T03:28:35;30.67;;;16.00;;
54191;SDS011;40101;53.002;6.488;2023-02-11T03:31:17;33.28;;;15.65;;
54191;SDS011;40101;53.002;6.488;2023-02-11T03:33:58;37.15;;;15.23;;
54191;SDS011;40101;53.002;6.488;2023-02-11T03:39:34;35.80;;;15.85;;
54191;SDS011;40101;53.002;6.488;2023-02-11T03:42:03;36.20;;;15.70;;
54191;SDS011;40101;53.002;6.488;2023-02-11T03:44:32;33.63;;;16.70;;
54191;SDS011;40101;53.002;6.488;2023-02-11T03:47:01;32.35;;;16.30;;
54191;SDS011;40101;53.002;6.488;2023-02-11T03:49:29;31.40;;;16.15;;
54191;SDS011;40101;53.002;6.488;2023-02-11T03:51:57;42.15;;;15.57;;
54191;SDS011;40101;53.002;6.488;2023-02-11T03:54:28;30.65;;;15.75;;
54191;SDS011;40101;53.002;6.488;2023-02-11T03:56:56;28.33;;;16.33;;
54191;SDS011;40101;53.002;6.488;2023-02-11T03:59:24;38.40;;;18.63;;
54191;SDS011;40101;53.002;6.488;2023-02-11T04:01:50;32.72;;;16.77;;
54191;SDS011;40101;53.002;6.488;2023-02-11T04:04:16;33.53;;;16.73;;
54191;SDS011;40101;53.002;6.488;2023-02-11T04:06:42;40.33;;;16.77;;
54191;SDS011;40101;53.002;6.488;2023-02-11T04:09:09;39.95;;;16.88;;
54191;SDS011;40101;53.002;6.488;2023-02-11T04:11:35;32.45;;;16.45;;
54191;SDS011;40101;53.002;6.488;2023-02-11T04:14:01;32.45;;;16.08;;
54191;SDS011;40101;53.002;6.488;2023-02-11T04:16:26;37.45;;;15.80;;
54191;SDS011;40101;53.002;6.488;2023-02-11T04:18:54;28.67;;;16.23;;
54191;SDS011;40101;53.002;6.488;2023-02-11T04:21:19;32.17;;;16.70;;
54191;SDS011;40101;53.002;6.488;2023-02-11T04:23:45;30.48;;;16.98;;
54191;SDS011;40101;53.002;6.488;2023-02-11T04:26:11;32.65;;;16.45;;
54191;SDS011;40101;53.002;6.488;2023-02-11T04:28:37;38.60;;;16.73;;
54191;SDS011;40101;53.002;6.488;2023-02-11T04:31:03;34.70;;;16.52;;
54191;SDS011;40101;53.002;6.488;2023-02-11T04:33:28;31.98;;;16.35;;
54191;SDS011;40101;53.002;6.488;2023-02-11T04:35:54;30.80;;;16.98;;
54191;SDS011;40101;53.002;6.488;2023-02-11T04:38:20;38.40;;;17.73;;
54191;SDS011;40101;53.002;6.488;2023-02-11T04:40:48;37.00;;;18.08;;
54191;SDS011;40101;53.002;6.488;2023-02-11T04:43:14;43.33;;;18.23;;
54191;SDS011;40101;53.002;6.488;2023-02-11T04:45:39;34.78;;;16.85;;
54191;SDS011;40101;53.002;6.488;2023-02-11T04:48:05;34.45;;;16.83;;
54191;SDS011;40101;53.002;6.488;2023-02-11T04:50:31;38.25;;;16.55;;
54191;SDS011;40101;53.002;6.488;2023-02-11T04:52:57;33.80;;;16.77;;
54191;SDS011;40101;53.002;6.488;2023-02-11T04:55:22;37.42;;;16.52;;
54191;SDS011;40101;53.002;6.488;2023-02-11T04:57:48;40.42;;;18.20;;
54191;SDS011;40101;53.002;6.488;2023-02-11T05:00:14;33.72;;;18.17;;
54191;SDS011;40101;53.002;6.488;2023-02-11T05:02:40;42.72;;;17.92;;
54191;SDS011;40101;53.002;6.488;2023-02-11T05:05:06;38.80;;;17.88;;
54191;SDS011;40101;53.002;6.488;2023-02-11T05:07:31;36.05;;;18.00;;
54191;SDS011;40101;53.002;6.488;2023-02-11T05:09:57;36.20;;;17.75;;
54191;SDS011;40101;53.002;6.488;2023-02-11T05:12:23;42.90;;;18.73;;
54191;SDS011;40101;53.002;6.488;2023-02-11T05:14:48;36.33;;;18.83;;
54191;SDS011;40101;53.002;6.488;2023-02-11T05:17:14;38.08;;;18.88;;
54191;SDS011;40101;53.002;6.488;2023-02-11T05:19:40;37.15;;;18.73;;
54191;SDS011;40101;53.002;6.488;2023-02-11T05:22:06;38.58;;;19.05;;
54191;SDS011;40101;53.002;6.488;2023-02-11T05:24:33;40.13;;;19.63;;
54191;SDS011;40101;53.002;6.488;2023-02-11T05:26:58;38.15;;;19.25;;
54191;SDS011;40101;53.002;6.488;2023-02-11T05:29:24;33.15;;;19.00;;
54191;SDS011;40101;53.002;6.488;2023-02-11T05:31:50;36.47;;;20.67;;
54191;SDS011;40101;53.002;6.488;2023-02-11T05:34:16;33.35;;;18.40;;
54191;SDS011;40101;53.002;6.488;2023-02-11T05:36:42;37.95;;;19.38;;
54191;SDS011;40101;53.002;6.488;2023-02-11T05:39:07;32.22;;;19.20;;
54191;SDS011;40101;53.002;6.488;2023-02-11T05:41:33;35.83;;;19.38;;
54191;SDS011;40101;53.002;6.488;2023-02-11T05:43:59;38.25;;;18.92;;
54191;SDS011;40101;53.002;6.488;2023-02-11T05:46:24;37.25;;;19.73;;
54191;SDS011;40101;53.002;6.488;2023-02-11T05:48:50;38.42;;;19.52;;
54191;SDS011;40101;53.002;6.488;2023-02-11T05:51:15;41.78;;;19.67;;
54191;SDS011;40101;53.002;6.488;2023-02-11T05:53:41;35.88;;;18.40;;
54191;SDS011;40101;53.002;6.488;2023-02-11T05:56:07;40.33;;;20.35;;
54191;SDS011;40101;53.002;6.488;2023-02-11T05:58:34;40.00;;;21.27;;
54191;SDS011;40101;53.002;6.488;2023-02-11T06:01:00;33.83;;;18.65;;
54191;SDS011;40101;53.002;6.488;2023-02-11T06:03:26;37.05;;;20.42;;
54191;SDS011;40101;53.002;6.488;2023-02-11T06:05:52;43.90;;;21.73;;
54191;SDS011;40101;53.002;6.488;2023-02-11T06:08:17;34.47;;;19.23;;
54191;SDS011;40101;53.002;6.488;2023-02-11T06:10:44;39.63;;;21.83;;
54191;SDS011;40101;53.002;6.488;2023-02-11T06:13:10;45.17;;;22.63;;
54191;SDS011;40101;53.002;6.488;2023-02-11T06:15:36;49.60;;;21.77;;
54191;SDS011;40101;53.002;6.488;2023-02-11T06:18:02;36.22;;;19.63;;
54191;SDS011;40101;53.002;6.488;2023-02-11T06:20:28;43.20;;;21.58;;
54191;SDS011;40101;53.002;6.488;2023-02-11T06:22:53;48.85;;;21.08;;
54191;SDS011;40101;53.002;6.488;2023-02-11T06:25:19;53.15;;;22.90;;
54191;SDS011;40101;53.002;6.488;2023-02-11T06:27:45;46.05;;;22.92;;
54191;SDS011;40101;53.002;6.488;2023-02-11T06:30:11;44.63;;;22.70;;
54191;SDS011;40101;53.002;6.488;2023-02-11T06:32:37;47.50;;;21.98;;
54191;SDS011;40101;53.002;6.488;2023-02-11T06:35:02;43.38;;;20.85;;
54191;SDS011;40101;53.002;6.488;2023-02-11T06:37:28;41.92;;;22.15;;
54191;SDS011;40101;53.002;6.488;2023-02-11T06:39:54;46.85;;;22.25;;
54191;SDS011;40101;53.002;6.488;2023-02-11T06:42:20;44.65;;;22.60;;
54191;SDS011;40101;53.002;6.488;2023-02-11T06:44:45;49.03;;;22.52;;
54191;SDS011;40101;53.002;6.488;2023-02-11T06:47:11;52.60;;;24.17;;
54191;SDS011;40101;53.002;6.488;2023-02-11T06:49:36;45.65;;;23.60;;
54191;SDS011;40101;53.002;6.488;2023-02-11T06:52:02;41.80;;;23.00;;
54191;SDS011;40101;53.002;6.488;2023-02-11T06:54:28;44.80;;;24.02;;
54191;SDS011;40101;53.002;6.488;2023-02-11T06:56:53;41.85;;;23.15;;
54191;SDS011;40101;53.002;6.488;2023-02-11T06:59:19;44.15;;;25.45;;
54191;SDS011;40101;53.002;6.488;2023-02-11T07:01:45;53.42;;;24.52;;
54191;SDS011;40101;53.002;6.488;2023-02-11T07:04:11;48.60;;;26.65;;
54191;SDS011;40101;53.002;6.488;2023-02-11T07:06:38;44.33;;;23.67;;
54191;SDS011;40101;53.002;6.488;2023-02-11T07:09:04;47.08;;;24.98;;
54191;SDS011;40101;53.002;6.488;2023-02-11T07:11:31;50.50;;;26.08;;
54191;SDS011;40101;53.002;6.488;2023-02-11T07:14:02;50.97;;;25.38;;
54191;SDS011;40101;53.002;6.488;2023-02-11T07:16:29;49.25;;;23.23;;
54191;SDS011;40101;53.002;6.488;2023-02-11T07:18:56;49.65;;;24.05;;
54191;SDS011;40101;53.002;6.488;2023-02-11T07:21:22;45.00;;;25.33;;
54191;SDS011;40101;53.002;6.488;2023-02-11T07:23:48;47.28;;;25.27;;
54191;SDS011;40101;53.002;6.488;2023-02-11T07:26:16;48.78;;;25.08;;
54191;SDS011;40101;53.002;6.488;2023-02-11T07:28:44;43.28;;;23.17;;
54191;SDS011;40101;53.002;6.488;2023-02-11T07:31:13;44.17;;;23.55;;
54191;SDS011;40101;53.002;6.488;2023-02-11T07:33:41;48.65;;;24.45;;
54191;SDS011;40101;53.002;6.488;2023-02-11T07:36:07;45.15;;;25.17;;
54191;SDS011;40101;53.002;6.488;2023-02-11T07:38:35;47.38;;;24.60;;
54191;SDS011;40101;53.002;6.488;2023-02-11T07:41:02;45.28;;;24.55;;
54191;SDS011;40101;53.002;6.488;2023-02-11T07:43:30;47.83;;;23.23;;
54191;SDS011;40101;53.002;6.488;2023-02-11T07:45:57;46.95;;;24.00;;
54191;SDS011;40101;53.002;6.488;2023-02-11T07:48:22;46.13;;;23.80;;
54191;SDS011;40101;53.002;6.488;2023-02-11T07:50:49;47.83;;;23.60;;
54191;SDS011;40101;53.002;6.488;2023-02-11T07:53:15;53.83;;;25.80;;
54191;SDS011;40101;53.002;6.488;2023-02-11T07:55:41;42.10;;;24.27;;
54191;SDS011;40101;53.002;6.488;2023-02-11T07:58:08;41.10;;;22.70;;
54191;SDS011;40101;53.002;6.488;2023-02-11T08:00:33;43.80;;;23.58;;
54191;SDS011;40101;53.002;6.488;2023-02-11T08:02:59;38.25;;;22.40;;
54191;SDS011;40101;53.002;6.488;2023-02-11T08:05:25;40.17;;;21.70;;
54191;SDS011;40101;53.002;6.488;2023-02-11T08:07:51;48.20;;;24.33;;
54191;SDS011;40101;53.002;6.488;2023-02-11T08:10:17;47.03;;;22.50;;
54191;SDS011;40101;53.002;6.488;2023-02-11T08:12:43;43.40;;;23.27;;
54191;SDS011;40101;53.002;6.488;2023-02-11T08:15:09;39.20;;;21.70;;
54191;SDS011;40101;53.002;6.488;2023-02-11T08:17:35;34.33;;;21.23;;
54191;SDS011;40101;53.002;6.488;2023-02-11T08:20:01;39.97;;;22.27;;
54191;SDS011;40101;53.002;6.488;2023-02-11T08:22:30;39.50;;;21.88;;
54191;SDS011;40101;53.002;6.488;2023-02-11T08:24:56;38.80;;;21.42;;
54191;SDS011;40101;53.002;6.488;2023-02-11T08:27:22;44.13;;;21.63;;
54191;SDS011;40101;53.002;6.488;2023-02-11T08:29:48;42.42;;;21.15;;
54191;SDS011;40101;53.002;6.488;2023-02-11T08:32:14;40.40;;;21.23;;
54191;SDS011;40101;53.002;6.488;2023-02-11T08:34:39;34.72;;;19.23;;
54191;SDS011;40101;53.002;6.488;2023-02-11T08:37:05;34.75;;;20.90;;
54191;SDS011;40101;53.002;6.488;2023-02-11T08:39:31;35.65;;;20.45;;
54191;SDS011;40101;53.002;6.488;2023-02-11T08:41:57;35.05;;;19.45;;
54191;SDS011;40101;53.002;6.488;2023-02-11T08:44:22;39.97;;;20.00;;
54191;SDS011;40101;53.002;6.488;2023-02-11T08:46:48;34.83;;;20.48;;
54191;SDS011;40101;53.002;6.488;2023-02-11T08:49:14;41.05;;;19.15;;
54191;SDS011;40101;53.002;6.488;2023-02-11T08:51:42;29.67;;;19.38;;
54191;SDS011;40101;53.002;6.488;2023-02-11T08:54:08;32.97;;;19.50;;
54191;SDS011;40101;53.002;6.488;2023-02-11T08:56:34;29.25;;;18.75;;
54191;SDS011;40101;53.002;6.488;2023-02-11T08:59:01;35.15;;;19.50;;
54191;SDS011;40101;53.002;6.488;2023-02-11T09:01:28;33.75;;;19.45;;
54191;SDS011;40101;53.002;6.488;2023-02-11T09:03:56;35.42;;;19.45;;
54191;SDS011;40101;53.002;6.488;2023-02-11T09:06:23;31.90;;;17.85;;
54191;SDS011;40101;53.002;6.488;2023-02-11T09:08:51;41.72;;;19.52;;
54191;SDS011;40101;53.002;6.488;2023-02-11T09:11:20;29.42;;;19.05;;
54191;SDS011;40101;53.002;6.488;2023-02-11T09:13:48;25.92;;;17.20;;
54191;SDS011;40101;53.002;6.488;2023-02-11T09:16:15;36.22;;;19.02;;
54191;SDS011;40101;53.002;6.488;2023-02-11T09:18:43;27.23;;;17.85;;
54191;SDS011;40101;53.002;6.488;2023-02-11T09:21:10;26.42;;;17.50;;
54191;SDS011;40101;53.002;6.488;2023-02-11T09:23:36;34.13;;;16.17;;
54191;SDS011;40101;53.002;6.488;2023-02-11T09:26:09;25.65;;;16.30;;
54191;SDS011;40101;53.002;6.488;2023-02-11T09:28:38;31.52;;;16.92;;
54191;SDS011;40101;53.002;6.488;2023-02-11T09:31:06;27.30;;;14.82;;
54191;SDS011;40101;53.002;6.488;2023-02-11T09:33:32;29.90;;;15.73;;
54191;SDS011;40101;53.002;6.488;2023-02-11T09:36:02;34.92;;;17.63;;
54191;SDS011;40101;53.002;6.488;2023-02-11T09:38:29;26.13;;;15.27;;
54191;SDS011;40101;53.002;6.488;2023-02-11T09:40:55;24.67;;;13.32;;
54191;SDS011;40101;53.002;6.488;2023-02-11T09:43:22;26.38;;;14.93;;
54191;SDS011;40101;53.002;6.488;2023-02-11T09:46:03;23.95;;;13.35;;
54191;SDS011;40101;53.002;6.488;2023-02-11T09:48:30;24.33;;;13.07;;
54191;SDS011;40101;53.002;6.488;2023-02-11T09:51:04;24.80;;;12.68;;
54191;SDS011;40101;53.002;6.488;2023-02-11T09:53:35;25.70;;;13.90;;
54191;SDS011;40101;53.002;6.488;2023-02-11T09:56:09;22.58;;;13.00;;
54191;SDS011;40101;53.002;6.488;2023-02-11T09:58:38;25.20;;;13.07;;
54191;SDS011;40101;53.002;6.488;2023-02-11T10:06:21;22.08;;;12.30;;
54191;SDS011;40101;53.002;6.488;2023-02-11T10:09:27;23.65;;;11.68;;
54191;SDS011;40101;53.002;6.488;2023-02-11T10:12:18;19.67;;;11.20;;
54191;SDS011;40101;53.002;6.488;2023-02-11T10:17:53;27.27;;;12.20;;
54191;SDS011;40101;53.002;6.488;2023-02-11T10:20:35;25.67;;;11.65;;
54191;SDS011;40101;53.002;6.488;2023-02-11T10:23:21;18.17;;;10.48;;
54191;SDS011;40101;53.002;6.488;2023-02-11T10:25:53;18.17;;;10.68;;
54191;SDS011;40101;53.002;6.488;2023-02-11T10:28:28;22.08;;;10.43;;
54191;SDS011;40101;53.002;6.488;2023-02-11T10:33:39;21.92;;;10.20;;
54191;SDS011;40101;53.002;6.488;2023-02-11T10:36:11;19.50;;;10.27;;
54191;SDS011;40101;53.002;6.488;2023-02-11T10:38:37;17.52;;;9.10;;
54191;SDS011;40101;53.002;6.488;2023-02-11T10:41:03;19.25;;;9.68;;
54191;SDS011;40101;53.002;6.488;2023-02-11T10:43:30;15.27;;;8.93;;
54191;SDS011;40101;53.002;6.488;2023-02-11T10:45:57;16.90;;;8.50;;
54191;SDS011;40101;53.002;6.488;2023-02-11T10:48:37;21.02;;;11.20;;
54191;SDS011;40101;53.002;6.488;2023-02-11T10:51:21;16.55;;;8.85;;
54191;SDS011;40101;53.002;6.488;2023-02-11T10:54:32;20.63;;;8.80;;
54191;SDS011;40101;53.002;6.488;2023-02-11T10:56:49;19.42;;;9.43;;
54191;SDS011;40101;53.002;6.488;2023-02-11T10:59:36;17.45;;;9.27;;
54191;SDS011;40101;53.002;6.488;2023-02-11T11:02:20;16.05;;;8.57;;
54191;SDS011;40101;53.002;6.488;2023-02-11T11:04:56;15.48;;;8.45;;
54191;SDS011;40101;53.002;6.488;2023-02-11T11:07:26;15.90;;;7.57;;
54191;SDS011;40101;53.002;6.488;2023-02-11T11:09:54;17.17;;;8.10;;
54191;SDS011;40101;53.002;6.488;2023-02-11T11:17:46;18.65;;;7.95;;
54191;SDS011;40101;53.002;6.488;2023-02-11T11:22:48;19.25;;;7.65;;
54191;SDS011;40101;53.002;6.488;2023-02-11T11:25:26;16.73;;;6.32;;
54191;SDS011;40101;53.002;6.488;2023-02-11T11:27:58;17.98;;;7.18;;
54191;SDS011;40101;53.002;6.488;2023-02-11T11:30:40;15.55;;;6.18;;
54191;SDS011;40101;53.002;6.488;2023-02-11T11:33:18;16.52;;;6.13;;
54191;SDS011;40101;53.002;6.488;2023-02-11T11:36:02;13.65;;;6.13;;
54191;SDS011;40101;53.002;6.488;2023-02-11T11:38:34;10.75;;;4.97;;
54191;SDS011;40101;53.002;6.488;2023-02-11T11:43:56;11.27;;;4.82;;
54191;SDS011;40101;53.002;6.488;2023-02-11T11:46:34;15.98;;;5.65;;
54191;SDS011;40101;53.002;6.488;2023-02-11T11:49:06;14.20;;;4.82;;
54191;SDS011;40101;53.002;6.488;2023-02-11T11:51:55;22.00;;;7.05;;
54191;SDS011;40101;53.002;6.488;2023-02-11T11:54:42;12.77;;;4.60;;
54191;SDS011;40101;53.002;6.488;2023-02-11T11:57:13;11.85;;;4.22;;
54191;SDS011;40101;53.002;6.488;2023-02-11T11:59:42;13.00;;;4.75;;
54191;SDS011;40101;53.002;6.488;2023-02-11T12:05:17;10.50;;;4.20;;
54191;SDS011;40101;53.002;6.488;2023-02-11T12:07:58;13.57;;;4.53;;
54191;SDS011;40101;53.002;6.488;2023-02-11T12:10:42;12.82;;;5.00;;
54191;SDS011;40101;53.002;6.488;2023-02-11T12:13:23;18.83;;;4.50;;
54191;SDS011;40101;53.002;6.488;2023-02-11T12:16:16;10.68;;;4.00;;
54191;SDS011;40101;53.002;6.488;2023-02-11T12:33:46;9.10;;;3.28;;
54191;SDS011;40101;53.002;6.488;2023-02-11T12:39:05;17.08;;;4.57;;
54191;SDS011;40101;53.002;6.488;2023-02-11T12:42:01;12.95;;;3.67;;
54191;SDS011;40101;53.002;6.488;2023-02-11T12:59:14;12.18;;;2.78;;
54191;SDS011;40101;53.002;6.488;2023-02-11T13:01:50;10.70;;;3.33;;
54191;SDS011;40101;53.002;6.488;2023-02-11T13:04:19;11.45;;;3.42;;
54191;SDS011;40101;53.002;6.488;2023-02-11T13:07:27;8.60;;;2.22;;
54191;SDS011;40101;53.002;6.488;2023-02-11T13:09:59;16.30;;;3.58;;
54191;SDS011;40101;53.002;6.488;2023-02-11T13:12:31;11.13;;;3.67;;
54191;SDS011;40101;53.002;6.488;2023-02-11T13:15:17;11.15;;;2.42;;
54191;SDS011;40101;53.002;6.488;2023-02-11T13:20:47;9.82;;;2.75;;
54191;SDS011;40101;53.002;6.488;2023-02-11T13:26:07;9.80;;;2.58;;
54191;SDS011;40101;53.002;6.488;2023-02-11T13:29:05;8.73;;;2.50;;
54191;SDS011;40101;53.002;6.488;2023-02-11T13:34:24;16.13;;;3.50;;
54191;SDS011;40101;53.002;6.488;2023-02-11T13:37:12;10.10;;;3.03;;
54191;SDS011;40101;53.002;6.488;2023-02-11T13:39:54;10.55;;;2.53;;
54191;SDS011;40101;53.002;6.488;2023-02-11T13:42:28;12.20;;;3.80;;
54191;SDS011;40101;53.002;6.488;2023-02-11T13:44:55;11.45;;;2.45;;
54191;SDS011;40101;53.002;6.488;2023-02-11T13:47:25;16.60;;;3.75;;
54191;SDS011;40101;53.002;6.488;2023-02-11T13:49:56;8.25;;;2.90;;
54191;SDS011;40101;53.002;6.488;2023-02-11T13:52:28;11.60;;;3.25;;
54191;SDS011;40101;53.002;6.488;2023-02-11T13:55:14;9.98;;;2.90;;
54191;SDS011;40101;53.002;6.488;2023-02-11T13:58:03;10.00;;;3.25;;
54191;SDS011;40101;53.002;6.488;2023-02-11T14:22:01;17.92;;;3.60;;
54191;SDS011;40101;53.002;6.488;2023-02-11T14:39:06;14.50;;;2.83;;
54191;SDS011;40101;53.002;6.488;2023-02-11T14:41:41;12.82;;;3.22;;
54191;SDS011;40101;53.002;6.488;2023-02-11T14:44:13;12.50;;;2.42;;
54191;SDS011;40101;53.002;6.488;2023-02-11T14:46:58;12.77;;;3.08;;
54191;SDS011;40101;53.002;6.488;2023-02-11T14:49:27;13.85;;;2.42;;
54191;SDS011;40101;53.002;6.488;2023-02-11T14:52:01;20.45;;;3.33;;
54191;SDS011;40101;53.002;6.488;2023-02-11T14:59:32;13.02;;;2.97;;
54191;SDS011;40101;53.002;6.488;2023-02-11T15:01:58;13.35;;;3.42;;
54191;SDS011;40101;53.002;6.488;2023-02-11T15:04:28;12.43;;;2.95;;
54191;SDS011;40101;53.002;6.488;2023-02-11T15:06:56;11.52;;;3.50;;
54191;SDS011;40101;53.002;6.488;2023-02-11T15:09:36;16.73;;;2.92;;
54191;SDS011;40101;53.002;6.488;2023-02-11T15:12:06;15.13;;;3.95;;
54191;SDS011;40101;53.002;6.488;2023-02-11T15:14:51;11.90;;;3.15;;
54191;SDS011;40101;53.002;6.488;2023-02-11T15:17:23;8.68;;;3.17;;
54191;SDS011;40101;53.002;6.488;2023-02-11T15:19:54;19.13;;;3.47;;
54191;SDS011;40101;53.002;6.488;2023-02-11T15:22:26;9.88;;;3.15;;
54191;SDS011;40101;53.002;6.488;2023-02-11T15:25:27;21.52;;;5.10;;
54191;SDS011;40101;53.002;6.488;2023-02-11T15:27:51;13.57;;;3.88;;
54191;SDS011;40101;53.002;6.488;2023-02-11T15:32:46;14.75;;;2.88;;
54191;SDS011;40101;53.002;6.488;2023-02-11T15:35:23;17.00;;;3.85;;
54191;SDS011;40101;53.002;6.488;2023-02-11T15:37:56;16.40;;;3.05;;
54191;SDS011;40101;53.002;6.488;2023-02-11T15:40:27;11.68;;;2.83;;
54191;SDS011;40101;53.002;6.488;2023-02-11T15:43:02;11.02;;;2.95;;
54191;SDS011;40101;53.002;6.488;2023-02-11T15:45:31;12.95;;;3.90;;
54191;SDS011;40101;53.002;6.488;2023-02-11T15:48:06;11.50;;;2.67;;
54191;SDS011;40101;53.002;6.488;2023-02-11T15:53:04;10.68;;;2.65;;
54191;SDS011;40101;53.002;6.488;2023-02-11T15:55:39;15.18;;;3.13;;
54191;SDS011;40101;53.002;6.488;2023-02-11T15:58:07;12.07;;;3.75;;
54191;SDS011;40101;53.002;6.488;2023-02-11T16:00:35;14.57;;;2.15;;
54191;SDS011;40101;53.002;6.488;2023-02-11T16:03:17;13.50;;;3.33;;
54191;SDS011;40101;53.002;6.488;2023-02-11T16:05:46;12.63;;;3.90;;
54191;SDS011;40101;53.002;6.488;2023-02-11T16:08:20;13.73;;;2.60;;
54191;SDS011;40101;53.002;6.488;2023-02-11T16:10:57;13.50;;;3.47;;
54191;SDS011;40101;53.002;6.488;2023-02-11T16:13:29;10.20;;;2.33;;
54191;SDS011;40101;53.002;6.488;2023-02-11T16:15:59;9.73;;;2.35;;
54191;SDS011;40101;53.002;6.488;2023-02-11T16:18:46;11.40;;;2.38;;
54191;SDS011;40101;53.002;6.488;2023-02-11T16:21:28;9.00;;;2.67;;
54191;SDS011;40101;53.002;6.488;2023-02-11T16:24:00;15.80;;;4.15;;
54191;SDS011;40101;53.002;6.488;2023-02-11T16:26:28;8.27;;;2.25;;
54191;SDS011;40101;53.002;6.488;2023-02-11T16:29:04;15.82;;;2.72;;
54191;SDS011;40101;53.002;6.488;2023-02-11T16:31:46;13.18;;;2.83;;
54191;SDS011;40101;53.002;6.488;2023-02-11T16:34:18;9.70;;;2.85;;
54191;SDS011;40101;53.002;6.488;2023-02-11T16:36:44;21.17;;;3.45;;
54191;SDS011;40101;53.002;6.488;2023-02-11T16:39:10;8.45;;;2.15;;
54191;SDS011;40101;53.002;6.488;2023-02-11T16:41:37;11.73;;;2.28;;
54191;SDS011;40101;53.002;6.488;2023-02-11T16:44:02;10.90;;;2.63;;
54191;SDS011;40101;53.002;6.488;2023-02-11T16:46:29;13.93;;;3.15;;
54191;SDS011;40101;53.002;6.488;2023-02-11T16:48:55;15.05;;;2.85;;
54191;SDS011;40101;53.002;6.488;2023-02-11T16:51:22;10.27;;;3.88;;
54191;SDS011;40101;53.002;6.488;2023-02-11T16:53:49;14.05;;;2.85;;
54191;SDS011;40101;53.002;6.488;2023-02-11T16:56:15;8.23;;;2.20;;
54191;SDS011;40101;53.002;6.488;2023-02-11T16:58:42;11.70;;;2.65;;
54191;SDS011;40101;53.002;6.488;2023-02-11T17:01:08;15.60;;;2.70;;
54191;SDS011;40101;53.002;6.488;2023-02-11T17:03:35;8.30;;;3.17;;
54191;SDS011;40101;53.002;6.488;2023-02-11T17:06:05;17.00;;;3.38;;
54191;SDS011;40101;53.002;6.488;2023-02-11T17:08:33;12.98;;;3.03;;
54191;SDS011;40101;53.002;6.488;2023-02-11T17:11:00;15.77;;;3.55;;
54191;SDS011;40101;53.002;6.488;2023-02-11T17:13:26;15.13;;;4.05;;